Tinsdal — V2AJ2 — position and weather

sailwx.info

Track history (hours):
 
Tides and Currents Weather Stations Pressure Air Temp Water Temp Dewpoint Dewpoint Depression Visibility Wind Speed Wind Dir Waves Ship Positions

Tinsdal

Last reported at 2015-Mar-03 14:07 UTC. Time now 2015-Mar-05 23:59 UTC.
Position N 50°35' E 000°17'.

Length 90 m; draft 5.6 m.

Type: Cargo ship. MMSI: 305573000.

Date/timePositionNaut miles runAvg speedWind from/ knotsBaromVisibWave heightAir tempDewpointWater temp
2015-Mar-03 14:07N 50°35' E 000°17'5 8.6
2015-Mar-03 13:33N 50°36' E 000°24'8 8.2
2015-Mar-03 12:33N 50°39' E 000°36'8 7.6
2015-Mar-03 11:33N 50°44' E 000°46'30 6.7
2015-Mar-03 07:03N 51°02' E 001°23'5 9.5
2015-Mar-03 06:33N 51°05' E 001°29'1010.3
2015-Mar-03 05:33N 51°11' E 001°42'10 9.6
2015-Mar-03 04:33N 51°19' E 001°52'8 7.9
2015-Mar-03 03:34N 51°25' E 002°00'7 7.3
2015-Mar-03 02:34N 51°22' E 002°11'7 7.2
2015-Mar-03 01:31N 51°22' E 002°23'7 7.1
2015-Mar-03 00:31N 51°23' E 002°34'7 7.0
2015-Mar-02 23:33N 51°23' E 002°45'6 5.9
2015-Mar-02 22:33N 51°23' E 002°54'7 6.8
2015-Mar-02 21:33N 51°24' E 003°05'9 7.8
2015-Mar-02 20:20N 51°25' E 003°20'7 8.6
2015-Mar-02 19:33N 51°25' E 003°31'7 7.4
2015-Mar-02 18:33N 51°25' E 003°43'7 6.2
2015-Mar-02 17:29N 51°20' E 003°49'1 1.2
2015-Mar-02 16:33N 51°19' E 003°50'3 3.0
2015-Mar-02 15:33N 51°16' E 003°50'8 7.8
2015-Mar-02 14:34N 51°08' E 003°47'3 2.8
2015-Mar-02 13:31N 51°06' E 003°44'0 0.0
2015-Mar-02 12:31N 51°06' E 003°44'0 0.0
2015-Mar-02 11:32N 51°06' E 003°44'0 0.0
2015-Mar-02 10:31N 51°06' E 003°44'0 0.0
2015-Mar-02 09:31N 51°06' E 003°44'0 0.0
2015-Mar-02 08:31N 51°06' E 003°44'0 0.0
2015-Mar-02 07:32N 51°06' E 003°44'0 0.0
2015-Mar-02 06:31N 51°06' E 003°44'0 0.0
2015-Mar-02 05:32N 51°06' E 003°44'0 0.0
2015-Mar-02 04:31N 51°06' E 003°44'0 0.0
2015-Mar-02 03:31N 51°06' E 003°44'0 0.0
2015-Mar-02 02:25N 51°06' E 003°44'0 0.0
2015-Mar-02 01:31N 51°06' E 003°44'0 0.0
2015-Mar-02 00:31N 51°06' E 003°44'0 0.0
2015-Mar-01 23:31N 51°06' E 003°44'0 0.0
2015-Mar-01 22:31N 51°06' E 003°44'0 0.0
2015-Mar-01 21:31N 51°06' E 003°44'0 0.0
2015-Mar-01 20:31N 51°06' E 003°44'0 0.0
2015-Mar-01 19:31N 51°06' E 003°44'0 0.0
2015-Mar-01 18:33N 51°06' E 003°44'0 0.0
2015-Mar-01 17:33N 51°06' E 003°44'1 0.9
2015-Mar-01 16:33N 51°07' E 003°45'8 8.1
2015-Mar-01 15:33N 51°14' E 003°49'5 5.4
2015-Mar-01 14:33N 51°20' E 003°49'7 7.1
2015-Mar-01 13:34N 51°25' E 003°42'8 7.5
2015-Mar-01 12:33N 51°25' E 003°30'12 8.3
2015-Mar-01 11:09N 51°23' E 003°11'5 9.1
2015-Mar-01 10:32N 51°22' E 003°03'9 8.7
2015-Mar-01 09:34N 51°22' E 002°49'10 9.8
2015-Mar-01 08:34N 51°22' E 002°33'1110.9
2015-Mar-01 07:33N 51°17' E 002°18'1111.3
2015-Mar-01 06:33N 51°11' E 002°02'1111.3
2015-Mar-01 05:34N 51°06' E 001°46'1110.9
2015-Mar-01 04:33N 50°58' E 001°34'  
2015-Feb-24 23:31N 50°36' E 000°22'8 8.1
2015-Feb-24 22:33N 50°38' E 000°34'10 9.3
2015-Feb-24 21:30N 50°44' E 000°47'29 9.1
2015-Feb-24 18:17N 51°02' E 001°23'5 7.4
2015-Feb-24 17:33N 51°05' E 001°30'6 5.9
2015-Feb-24 16:33N 51°09' E 001°37'6 6.1
2015-Feb-24 15:33N 51°13' E 001°44'7 7.4
2015-Feb-24 14:33N 51°19' E 001°50'10 9.8
2015-Feb-24 13:33N 51°28' E 001°58'1110.8
2015-Feb-24 12:33N 51°36' E 002°09'141 6.6
2015-Feb-23 15:09N 53°26' E 004°34'6 7.8
2015-Feb-23 14:25N 53°29' E 004°42'8 8.7
2015-Feb-23 13:33N 53°32' E 004°54'8 8.4
2015-Feb-23 12:33N 53°34' E 005°07'8 7.8
2015-Feb-23 11:33N 53°37' E 005°19'7 7.4
2015-Feb-23 10:33N 53°40' E 005°31'8 7.6
2015-Feb-23 09:33N 53°42' E 005°43'7 7.3
2015-Feb-23 08:31N 53°45' E 005°55'53 7.4
2015-Feb-23 01:23N 53°59' E 007°21'5 6.1
2015-Feb-23 00:33N 54°00' E 007°29'7 6.5
2015-Feb-22 23:33N 54°01' E 007°40'7 6.9
2015-Feb-22 22:33N 54°01' E 007°52'7 7.4
2015-Feb-22 21:33N 54°01' E 008°04'8 7.9
2015-Feb-22 20:33N 53°60' E 008°18'1111.4
2015-Feb-22 19:33N 53°58' E 008°37'1211.8
2015-Feb-22 18:33N 53°51' E 008°52'1010.1
2015-Feb-22 17:33N 53°54' E 009°09'3 2.9
2015-Feb-22 16:33N 53°56' E 009°12'8 7.7
2015-Feb-22 15:31N 54°03' E 009°18'15 7.1
2015-Feb-22 13:24N 54°14' E 009°36'6 7.0
2015-Feb-22 12:33N 54°18' E 009°43'7 7.1
2015-Feb-22 11:33N 54°21' E 009°54'7 7.5
2015-Feb-22 10:33N 54°22' E 010°06'2 2.3
2015-Feb-22 09:33N 54°22' E 010°10'9 8.9
2015-Feb-22 08:33N 54°30' E 010°18'23 7.7
2015-Feb-22 05:32N 54°36' E 010°56'7 7.6
2015-Feb-22 04:33N 54°36' E 011°09'8 7.7
2015-Feb-22 03:33N 54°34' E 011°22'8 7.7
2015-Feb-22 02:33N 54°26' E 011°24'9 9.3
2015-Feb-22 01:33N 54°17' E 011°26'10 9.4
2015-Feb-22 00:31N 54°07' E 011°27'8 8.2
2015-Feb-21 23:32N 54°00' E 011°20'8 7.7
2015-Feb-21 22:33N 53°54' E 011°28'0 0.0
2015-Feb-21 21:32N 53°54' E 011°28'0 0.0
2015-Feb-21 20:32N 53°54' E 011°28'0 0.0
2015-Feb-21 19:32N 53°54' E 011°28'0 0.0
2015-Feb-21 18:28N 53°54' E 011°28'0 0.0
2015-Feb-21 17:32N 53°54' E 011°28'0 0.0
2015-Feb-21 16:32N 53°54' E 011°28'0 0.0
2015-Feb-21 15:32N 53°54' E 011°28'0 0.0
2015-Feb-21 14:32N 53°54' E 011°28'  
Track history (hours):
 
Tides and Currents Weather Stations Pressure Air Temp Water Temp Dewpoint Dewpoint Depression Visibility Wind Speed Wind Dir Waves Ship Positions

Tinsdal

Last reported at 2015-Mar-03 14:07 UTC. Time now 2015-Mar-05 23:59 UTC.
Position N 50°35' E 000°17'.

Length 90 m; draft 5.6 m.

Type: Cargo ship. MMSI: 305573000.

Date/timePositionNaut miles runAvg speedWind from/ knotsBaromVisibWave heightAir tempDewpointWater temp
2015-Mar-03 14:07N 50°35' E 000°17'5 8.6
2015-Mar-03 13:33N 50°36' E 000°24'8 8.2
2015-Mar-03 12:33N 50°39' E 000°36'8 7.6
2015-Mar-03 11:33N 50°44' E 000°46'30 6.7
2015-Mar-03 07:03N 51°02' E 001°23'5 9.5
2015-Mar-03 06:33N 51°05' E 001°29'1010.3
2015-Mar-03 05:33N 51°11' E 001°42'10 9.6
2015-Mar-03 04:33N 51°19' E 001°52'8 7.9
2015-Mar-03 03:34N 51°25' E 002°00'7 7.3
2015-Mar-03 02:34N 51°22' E 002°11'7 7.2
2015-Mar-03 01:31N 51°22' E 002°23'7 7.1
2015-Mar-03 00:31N 51°23' E 002°34'7 7.0
2015-Mar-02 23:33N 51°23' E 002°45'6 5.9
2015-Mar-02 22:33N 51°23' E 002°54'7 6.8
2015-Mar-02 21:33N 51°24' E 003°05'9 7.8
2015-Mar-02 20:20N 51°25' E 003°20'7 8.6
2015-Mar-02 19:33N 51°25' E 003°31'7 7.4
2015-Mar-02 18:33N 51°25' E 003°43'7 6.2
2015-Mar-02 17:29N 51°20' E 003°49'1 1.2
2015-Mar-02 16:33N 51°19' E 003°50'3 3.0
2015-Mar-02 15:33N 51°16' E 003°50'8 7.8
2015-Mar-02 14:34N 51°08' E 003°47'3 2.8
2015-Mar-02 13:31N 51°06' E 003°44'0 0.0
2015-Mar-02 12:31N 51°06' E 003°44'0 0.0
2015-Mar-02 11:32N 51°06' E 003°44'0 0.0
2015-Mar-02 10:31N 51°06' E 003°44'0 0.0
2015-Mar-02 09:31N 51°06' E 003°44'0 0.0
2015-Mar-02 08:31N 51°06' E 003°44'0 0.0
2015-Mar-02 07:32N 51°06' E 003°44'0 0.0
2015-Mar-02 06:31N 51°06' E 003°44'0 0.0
2015-Mar-02 05:32N 51°06' E 003°44'0 0.0
2015-Mar-02 04:31N 51°06' E 003°44'0 0.0
2015-Mar-02 03:31N 51°06' E 003°44'0 0.0
2015-Mar-02 02:25N 51°06' E 003°44'0 0.0
2015-Mar-02 01:31N 51°06' E 003°44'0 0.0
2015-Mar-02 00:31N 51°06' E 003°44'0 0.0
2015-Mar-01 23:31N 51°06' E 003°44'0 0.0
2015-Mar-01 22:31N 51°06' E 003°44'0 0.0
2015-Mar-01 21:31N 51°06' E 003°44'0 0.0
2015-Mar-01 20:31N 51°06' E 003°44'0 0.0
2015-Mar-01 19:31N 51°06' E 003°44'0 0.0
2015-Mar-01 18:33N 51°06' E 003°44'0 0.0
2015-Mar-01 17:33N 51°06' E 003°44'1 0.9
2015-Mar-01 16:33N 51°07' E 003°45'8 8.1
2015-Mar-01 15:33N 51°14' E 003°49'5 5.4
2015-Mar-01 14:33N 51°20' E 003°49'7 7.1
2015-Mar-01 13:34N 51°25' E 003°42'8 7.5
2015-Mar-01 12:33N 51°25' E 003°30'12 8.3
2015-Mar-01 11:09N 51°23' E 003°11'5 9.1
2015-Mar-01 10:32N 51°22' E 003°03'9 8.7
2015-Mar-01 09:34N 51°22' E 002°49'10 9.8
2015-Mar-01 08:34N 51°22' E 002°33'1110.9
2015-Mar-01 07:33N 51°17' E 002°18'1111.3
2015-Mar-01 06:33N 51°11' E 002°02'1111.3
2015-Mar-01 05:34N 51°06' E 001°46'1110.9
2015-Mar-01 04:33N 50°58' E 001°34'  
2015-Feb-24 23:31N 50°36' E 000°22'8 8.1
2015-Feb-24 22:33N 50°38' E 000°34'10 9.3
2015-Feb-24 21:30N 50°44' E 000°47'29 9.1
2015-Feb-24 18:17N 51°02' E 001°23'5 7.4
2015-Feb-24 17:33N 51°05' E 001°30'6 5.9
2015-Feb-24 16:33N 51°09' E 001°37'6 6.1
2015-Feb-24 15:33N 51°13' E 001°44'7 7.4
2015-Feb-24 14:33N 51°19' E 001°50'10 9.8
2015-Feb-24 13:33N 51°28' E 001°58'1110.8
2015-Feb-24 12:33N 51°36' E 002°09'141 6.6
2015-Feb-23 15:09N 53°26' E 004°34'6 7.8
2015-Feb-23 14:25N 53°29' E 004°42'8 8.7
2015-Feb-23 13:33N 53°32' E 004°54'8 8.4
2015-Feb-23 12:33N 53°34' E 005°07'8 7.8
2015-Feb-23 11:33N 53°37' E 005°19'7 7.4
2015-Feb-23 10:33N 53°40' E 005°31'8 7.6
2015-Feb-23 09:33N 53°42' E 005°43'7 7.3
2015-Feb-23 08:31N 53°45' E 005°55'53 7.4
2015-Feb-23 01:23N 53°59' E 007°21'5 6.1
2015-Feb-23 00:33N 54°00' E 007°29'7 6.5
2015-Feb-22 23:33N 54°01' E 007°40'7 6.9
2015-Feb-22 22:33N 54°01' E 007°52'7 7.4
2015-Feb-22 21:33N 54°01' E 008°04'8 7.9
2015-Feb-22 20:33N 53°60' E 008°18'1111.4
2015-Feb-22 19:33N 53°58' E 008°37'1211.8
2015-Feb-22 18:33N 53°51' E 008°52'1010.1
2015-Feb-22 17:33N 53°54' E 009°09'3 2.9
2015-Feb-22 16:33N 53°56' E 009°12'8 7.7
2015-Feb-22 15:31N 54°03' E 009°18'15 7.1
2015-Feb-22 13:24N 54°14' E 009°36'6 7.0
2015-Feb-22 12:33N 54°18' E 009°43'7 7.1
2015-Feb-22 11:33N 54°21' E 009°54'7 7.5
2015-Feb-22 10:33N 54°22' E 010°06'2 2.3
2015-Feb-22 09:33N 54°22' E 010°10'9 8.9
2015-Feb-22 08:33N 54°30' E 010°18'23 7.7
2015-Feb-22 05:32N 54°36' E 010°56'7 7.6
2015-Feb-22 04:33N 54°36' E 011°09'8 7.7
2015-Feb-22 03:33N 54°34' E 011°22'8 7.7
2015-Feb-22 02:33N 54°26' E 011°24'9 9.3
2015-Feb-22 01:33N 54°17' E 011°26'10 9.4
2015-Feb-22 00:31N 54°07' E 011°27'8 8.2
2015-Feb-21 23:32N 54°00' E 011°20'8 7.7
2015-Feb-21 22:33N 53°54' E 011°28'0 0.0
2015-Feb-21 21:32N 53°54' E 011°28'0 0.0
2015-Feb-21 20:32N 53°54' E 011°28'0 0.0
2015-Feb-21 19:32N 53°54' E 011°28'0 0.0
2015-Feb-21 18:28N 53°54' E 011°28'0 0.0
2015-Feb-21 17:32N 53°54' E 011°28'0 0.0
2015-Feb-21 16:32N 53°54' E 011°28'0 0.0
2015-Feb-21 15:32N 53°54' E 011°28'0 0.0
2015-Feb-21 14:32N 53°54' E 011°28'  

Dump ship's entire track history